Terminal Aerodrome Forecast
Issued by NWS

Home | Current Version | Previous Version | Text Only | Print | Product List | Glossary On
Versions: 1 2 3 4 5 6 7 8 9 10 11 12 13 14 15 16 17 18 19 20 21 22 23
000
FTUS43 KGLD 260520
TAFMCK
TAF
KMCK 260520Z 2606/2706 09007KT 3SM BR OVC002
     FM260800 12004KT 1/2SM FG OVC002
     FM261400 10005KT 1SM BR BKN008
     FM261600 08005KT 3SM BR BKN010
     FM261700 09007KT P6SM BKN100
     FM262200 06006KT P6SM BKN090=

USA.gov is the U.S. government's official web portal to all federal, state and local government web resources and services.